sensor_id;sensor_type;location;lat;lon;timestamp;pressure;altitude;pressure_sealevel;temperature;humidity
50430;BME280;36359;41.556;-8.418;2023-05-07T00:00:02;100493.47;;;17.21;98.47
50430;BME280;36359;41.556;-8.418;2023-05-07T00:02:28;100493.56;;;17.13;99.37
50430;BME280;36359;41.556;-8.418;2023-05-07T00:04:54;100492.03;;;17.10;99.61
50430;BME280;36359;41.556;-8.418;2023-05-07T00:07:20;100493.25;;;17.08;98.26
50430;BME280;36359;41.556;-8.418;2023-05-07T00:09:46;100488.31;;;16.88;100.00
50430;BME280;36359;41.556;-8.418;2023-05-07T00:12:12;100486.84;;;17.00;100.00
50430;BME280;36359;41.556;-8.418;2023-05-07T00:14:38;100492.72;;;16.97;99.64
50430;BME280;36359;41.556;-8.418;2023-05-07T00:17:03;100495.16;;;17.07;100.00
50430;BME280;36359;41.556;-8.418;2023-05-07T00:19:29;100502.72;;;17.05;99.35
50430;BME280;36359;41.556;-8.418;2023-05-07T00:21:55;100501.31;;;17.09;99.74
50430;BME280;36359;41.556;-8.418;2023-05-07T00:24:22;100497.81;;;17.00;100.00
50430;BME280;36359;41.556;-8.418;2023-05-07T00:26:48;100505.28;;;17.07;100.00
50430;BME280;36359;41.556;-8.418;2023-05-07T00:29:13;100496.47;;;16.96;100.00
50430;BME280;36359;41.556;-8.418;2023-05-07T00:31:39;100495.25;;;16.99;100.00
50430;BME280;36359;41.556;-8.418;2023-05-07T00:34:05;100506.59;;;16.96;100.00
50430;BME280;36359;41.556;-8.418;2023-05-07T00:36:31;100503.00;;;17.10;100.00
50430;BME280;36359;41.556;-8.418;2023-05-07T00:38:59;100495.94;;;17.16;100.00
50430;BME280;36359;41.556;-8.418;2023-05-07T00:41:26;100488.25;;;17.26;98.48
50430;BME280;36359;41.556;-8.418;2023-05-07T00:43:52;100497.25;;;17.20;97.93
50430;BME280;36359;41.556;-8.418;2023-05-07T00:46:20;100502.84;;;17.27;98.03
50430;BME280;36359;41.556;-8.418;2023-05-07T00:48:46;100496.09;;;16.99;100.00
50430;BME280;36359;41.556;-8.418;2023-05-07T00:51:12;100491.47;;;17.00;99.95
50430;BME280;36359;41.556;-8.418;2023-05-07T00:53:38;100495.25;;;16.99;99.12
50430;BME280;36359;41.556;-8.418;2023-05-07T00:56:05;100503.16;;;16.94;99.26
50430;BME280;36359;41.556;-8.418;2023-05-07T00:58:32;100505.66;;;17.03;99.08
50430;BME280;36359;41.556;-8.418;2023-05-07T01:00:59;100504.22;;;16.93;100.00
50430;BME280;36359;41.556;-8.418;2023-05-07T01:03:25;100499.41;;;16.95;100.00
50430;BME280;36359;41.556;-8.418;2023-05-07T01:05:52;100496.66;;;16.95;100.00
50430;BME280;36359;41.556;-8.418;2023-05-07T01:08:20;100498.81;;;16.85;100.00
50430;BME280;36359;41.556;-8.418;2023-05-07T01:10:46;100489.81;;;16.76;100.00
50430;BME280;36359;41.556;-8.418;2023-05-07T01:13:12;100504.03;;;16.94;100.00
50430;BME280;36359;41.556;-8.418;2023-05-07T01:15:40;100493.47;;;16.91;99.50
50430;BME280;36359;41.556;-8.418;2023-05-07T01:18:06;100498.38;;;16.96;98.43
50430;BME280;36359;41.556;-8.418;2023-05-07T01:20:34;100490.34;;;16.94;97.32
50430;BME280;36359;41.556;-8.418;2023-05-07T01:23:00;100491.94;;;16.89;98.15
50430;BME280;36359;41.556;-8.418;2023-05-07T01:25:27;100490.97;;;16.58;100.00
50430;BME280;36359;41.556;-8.418;2023-05-07T01:27:56;100495.53;;;16.66;100.00
50430;BME280;36359;41.556;-8.418;2023-05-07T01:30:27;100493.75;;;16.73;100.00
50430;BME280;36359;41.556;-8.418;2023-05-07T01:33:09;100497.53;;;17.10;98.84
50430;BME280;36359;41.556;-8.418;2023-05-07T01:35:41;100506.03;;;17.00;98.33
50430;BME280;36359;41.556;-8.418;2023-05-07T01:38:09;100504.59;;;16.90;98.49
50430;BME280;36359;41.556;-8.418;2023-05-07T01:40:35;100492.25;;;16.71;100.00
50430;BME280;36359;41.556;-8.418;2023-05-07T01:43:02;100501.97;;;16.73;100.00
50430;BME280;36359;41.556;-8.418;2023-05-07T01:45:30;100510.16;;;16.96;100.00
50430;BME280;36359;41.556;-8.418;2023-05-07T01:47:58;100507.34;;;16.90;99.62
50430;BME280;36359;41.556;-8.418;2023-05-07T01:50:25;100502.41;;;16.85;99.86
50430;BME280;36359;41.556;-8.418;2023-05-07T01:52:51;100513.47;;;16.77;100.00
50430;BME280;36359;41.556;-8.418;2023-05-07T01:55:17;100515.41;;;16.68;100.00
50430;BME280;36359;41.556;-8.418;2023-05-07T01:57:43;100510.56;;;16.70;100.00
50430;BME280;36359;41.556;-8.418;2023-05-07T02:02:35;100500.63;;;16.54;100.00
50430;BME280;36359;41.556;-8.418;2023-05-07T02:05:01;100503.59;;;16.68;100.00
50430;BME280;36359;41.556;-8.418;2023-05-07T02:07:27;100505.66;;;16.66;100.00
50430;BME280;36359;41.556;-8.418;2023-05-07T02:09:53;100498.63;;;16.48;100.00
50430;BME280;36359;41.556;-8.418;2023-05-07T02:12:22;100497.28;;;16.44;100.00
50430;BME280;36359;41.556;-8.418;2023-05-07T02:14:49;100499.34;;;16.65;100.00
50430;BME280;36359;41.556;-8.418;2023-05-07T02:17:15;100496.66;;;16.57;100.00
50430;BME280;36359;41.556;-8.418;2023-05-07T02:19:41;100489.97;;;16.60;99.46
50430;BME280;36359;41.556;-8.418;2023-05-07T02:22:07;100487.28;;;16.51;99.41
50430;BME280;36359;41.556;-8.418;2023-05-07T02:24:33;100480.34;;;16.41;99.49
50430;BME280;36359;41.556;-8.418;2023-05-07T02:26:58;100476.97;;;16.39;98.91
50430;BME280;36359;41.556;-8.418;2023-05-07T02:29:24;100477.13;;;16.37;99.13
50430;BME280;36359;41.556;-8.418;2023-05-07T02:31:54;100469.28;;;16.34;98.54
50430;BME280;36359;41.556;-8.418;2023-05-07T02:34:20;100461.50;;;16.23;99.45
50430;BME280;36359;41.556;-8.418;2023-05-07T02:36:46;100464.25;;;16.00;100.00
50430;BME280;36359;41.556;-8.418;2023-05-07T02:39:15;100467.63;;;15.79;100.00
50430;BME280;36359;41.556;-8.418;2023-05-07T02:41:41;100460.16;;;15.73;100.00
50430;BME280;36359;41.556;-8.418;2023-05-07T02:44:06;100466.94;;;16.08;100.00
50430;BME280;36359;41.556;-8.418;2023-05-07T02:46:33;100461.88;;;16.20;100.00
50430;BME280;36359;41.556;-8.418;2023-05-07T02:49:03;100454.41;;;16.13;100.00
50430;BME280;36359;41.556;-8.418;2023-05-07T02:51:30;100450.09;;;15.96;100.00
50430;BME280;36359;41.556;-8.418;2023-05-07T02:53:59;100445.81;;;15.94;100.00
50430;BME280;36359;41.556;-8.418;2023-05-07T02:56:27;100444.72;;;16.03;100.00
50430;BME280;36359;41.556;-8.418;2023-05-07T02:58:53;100446.06;;;16.30;100.00
50430;BME280;36359;41.556;-8.418;2023-05-07T03:01:21;100452.41;;;16.07;100.00
50430;BME280;36359;41.556;-8.418;2023-05-07T03:03:56;100445.69;;;15.87;100.00
50430;BME280;36359;41.556;-8.418;2023-05-07T03:06:22;100451.78;;;15.74;100.00
50430;BME280;36359;41.556;-8.418;2023-05-07T03:08:47;100451.47;;;15.61;100.00
50430;BME280;36359;41.556;-8.418;2023-05-07T03:11:13;100464.63;;;15.65;100.00
50430;BME280;36359;41.556;-8.418;2023-05-07T03:13:40;100468.56;;;15.71;100.00
50430;BME280;36359;41.556;-8.418;2023-05-07T03:16:06;100466.88;;;15.93;100.00
50430;BME280;36359;41.556;-8.418;2023-05-07T03:18:32;100482.00;;;15.81;100.00
50430;BME280;36359;41.556;-8.418;2023-05-07T03:20:58;100483.41;;;15.77;100.00
50430;BME280;36359;41.556;-8.418;2023-05-07T03:23:23;100480.94;;;15.82;100.00
50430;BME280;36359;41.556;-8.418;2023-05-07T03:25:49;100481.50;;;15.77;100.00
50430;BME280;36359;41.556;-8.418;2023-05-07T03:28:15;100485.13;;;16.01;100.00
50430;BME280;36359;41.556;-8.418;2023-05-07T03:33:16;100486.38;;;15.90;99.89
50430;BME280;36359;41.556;-8.418;2023-05-07T03:35:42;100494.34;;;15.77;100.00
50430;BME280;36359;41.556;-8.418;2023-05-07T03:38:09;100489.22;;;15.74;100.00
50430;BME280;36359;41.556;-8.418;2023-05-07T03:40:36;100478.97;;;15.67;100.00
50430;BME280;36359;41.556;-8.418;2023-05-07T03:43:03;100482.03;;;15.64;100.00
50430;BME280;36359;41.556;-8.418;2023-05-07T03:45:31;100487.03;;;15.69;100.00
50430;BME280;36359;41.556;-8.418;2023-05-07T03:48:06;100482.47;;;15.53;99.45
50430;BME280;36359;41.556;-8.418;2023-05-07T03:50:32;100498.69;;;15.55;99.70
50430;BME280;36359;41.556;-8.418;2023-05-07T03:52:58;100499.91;;;15.44;100.00
50430;BME280;36359;41.556;-8.418;2023-05-07T03:55:24;100498.09;;;15.36;100.00
50430;BME280;36359;41.556;-8.418;2023-05-07T03:57:55;100498.41;;;15.41;100.00
50430;BME280;36359;41.556;-8.418;2023-05-07T04:00:23;100498.56;;;15.40;100.00
50430;BME280;36359;41.556;-8.418;2023-05-07T04:02:49;100498.09;;;15.36;100.00
50430;BME280;36359;41.556;-8.418;2023-05-07T04:05:21;100495.50;;;15.35;100.00
50430;BME280;36359;41.556;-8.418;2023-05-07T04:07:50;100499.28;;;15.34;100.00
50430;BME280;36359;41.556;-8.418;2023-05-07T04:10:20;100502.50;;;15.45;100.00
50430;BME280;36359;41.556;-8.418;2023-05-07T04:12:48;100497.72;;;15.39;99.88
50430;BME280;36359;41.556;-8.418;2023-05-07T04:15:18;100496.03;;;15.38;100.00
50430;BME280;36359;41.556;-8.418;2023-05-07T04:17:44;100497.81;;;15.62;100.00
50430;BME280;36359;41.556;-8.418;2023-05-07T04:20:16;100509.13;;;15.51;100.00
50430;BME280;36359;41.556;-8.418;2023-05-07T04:22:44;100501.16;;;15.41;100.00
50430;BME280;36359;41.556;-8.418;2023-05-07T04:25:10;100507.97;;;15.45;100.00
50430;BME280;36359;41.556;-8.418;2023-05-07T04:27:36;100506.97;;;15.38;100.00
50430;BME280;36359;41.556;-8.418;2023-05-07T04:30:04;100498.94;;;15.37;100.00
50430;BME280;36359;41.556;-8.418;2023-05-07T04:32:34;100504.75;;;15.34;100.00
50430;BME280;36359;41.556;-8.418;2023-05-07T04:35:02;100506.81;;;15.32;100.00
50430;BME280;36359;41.556;-8.418;2023-05-07T04:37:27;100500.97;;;15.35;100.00
50430;BME280;36359;41.556;-8.418;2023-05-07T04:39:53;100502.16;;;15.40;100.00
50430;BME280;36359;41.556;-8.418;2023-05-07T04:42:20;100501.50;;;15.38;100.00
50430;BME280;36359;41.556;-8.418;2023-05-07T04:44:46;100504.84;;;15.57;100.00
50430;BME280;36359;41.556;-8.418;2023-05-07T04:47:12;100506.97;;;15.78;100.00
50430;BME280;36359;41.556;-8.418;2023-05-07T04:49:38;100510.31;;;15.57;100.00
50430;BME280;36359;41.556;-8.418;2023-05-07T04:52:10;100508.38;;;15.74;100.00
50430;BME280;36359;41.556;-8.418;2023-05-07T04:54:36;100506.34;;;15.67;100.00
50430;BME280;36359;41.556;-8.418;2023-05-07T04:57:03;100505.13;;;15.70;100.00
50430;BME280;36359;41.556;-8.418;2023-05-07T04:59:30;100508.75;;;15.94;100.00
50430;BME280;36359;41.556;-8.418;2023-05-07T05:01:56;100515.34;;;15.76;100.00
50430;BME280;36359;41.556;-8.418;2023-05-07T05:04:21;100495.47;;;15.51;100.00
50430;BME280;36359;41.556;-8.418;2023-05-07T05:06:47;100507.72;;;15.55;100.00
50430;BME280;36359;41.556;-8.418;2023-05-07T05:09:13;100504.41;;;15.37;100.00
50430;BME280;36359;41.556;-8.418;2023-05-07T05:11:41;100506.03;;;15.54;100.00
50430;BME280;36359;41.556;-8.418;2023-05-07T05:14:07;100514.97;;;15.40;100.00
50430;BME280;36359;41.556;-8.418;2023-05-07T05:16:32;100506.66;;;15.25;100.00
50430;BME280;36359;41.556;-8.418;2023-05-07T05:18:59;100526.84;;;15.24;100.00
50430;BME280;36359;41.556;-8.418;2023-05-07T05:21:24;100521.00;;;15.35;100.00
50430;BME280;36359;41.556;-8.418;2023-05-07T05:23:54;100523.94;;;15.17;100.00
50430;BME280;36359;41.556;-8.418;2023-05-07T05:26:23;100528.03;;;15.30;100.00
50430;BME280;36359;41.556;-8.418;2023-05-07T05:28:49;100529.88;;;15.29;100.00
50430;BME280;36359;41.556;-8.418;2023-05-07T05:31:17;100534.41;;;14.97;100.00
50430;BME280;36359;41.556;-8.418;2023-05-07T05:33:43;100533.97;;;15.33;100.00
50430;BME280;36359;41.556;-8.418;2023-05-07T05:36:09;100531.03;;;15.43;100.00
50430;BME280;36359;41.556;-8.418;2023-05-07T05:38:36;100532.06;;;15.42;100.00
50430;BME280;36359;41.556;-8.418;2023-05-07T05:41:03;100536.69;;;15.41;100.00
50430;BME280;36359;41.556;-8.418;2023-05-07T05:43:29;100534.31;;;15.38;100.00
50430;BME280;36359;41.556;-8.418;2023-05-07T05:45:56;100547.31;;;15.28;100.00
50430;BME280;36359;41.556;-8.418;2023-05-07T05:48:22;100537.44;;;15.11;100.00
50430;BME280;36359;41.556;-8.418;2023-05-07T05:50:48;100536.34;;;14.56;100.00
50430;BME280;36359;41.556;-8.418;2023-05-07T05:53:32;100560.53;;;14.67;100.00
50430;BME280;36359;41.556;-8.418;2023-05-07T05:55:59;100564.47;;;14.73;100.00
50430;BME280;36359;41.556;-8.418;2023-05-07T05:58:24;100567.72;;;14.68;100.00
50430;BME280;36359;41.556;-8.418;2023-05-07T06:00:56;100574.41;;;14.74;100.00
50430;BME280;36359;41.556;-8.418;2023-05-07T06:03:24;100573.84;;;14.70;100.00
50430;BME280;36359;41.556;-8.418;2023-05-07T06:05:50;100579.97;;;14.97;100.00
50430;BME280;36359;41.556;-8.418;2023-05-07T06:08:19;100571.41;;;15.25;100.00
50430;BME280;36359;41.556;-8.418;2023-05-07T06:10:45;100578.22;;;15.37;100.00
50430;BME280;36359;41.556;-8.418;2023-05-07T06:13:11;100579.72;;;15.48;100.00
50430;BME280;36359;41.556;-8.418;2023-05-07T06:15:37;100571.56;;;15.31;100.00
50430;BME280;36359;41.556;-8.418;2023-05-07T06:18:07;100582.03;;;15.11;100.00
50430;BME280;36359;41.556;-8.418;2023-05-07T06:20:33;100581.84;;;15.21;100.00
50430;BME280;36359;41.556;-8.418;2023-05-07T06:23:02;100585.72;;;15.43;100.00
50430;BME280;36359;41.556;-8.418;2023-05-07T06:25:29;100583.34;;;15.40;100.00
50430;BME280;36359;41.556;-8.418;2023-05-07T06:27:54;100588.94;;;15.55;100.00
50430;BME280;36359;41.556;-8.418;2023-05-07T06:30:20;100586.34;;;15.61;100.00
50430;BME280;36359;41.556;-8.418;2023-05-07T06:32:46;100589.94;;;15.70;100.00
50430;BME280;36359;41.556;-8.418;2023-05-07T06:35:13;100593.88;;;15.67;100.00
50430;BME280;36359;41.556;-8.418;2023-05-07T06:37:41;100567.06;;;15.55;100.00
50430;BME280;36359;41.556;-8.418;2023-05-07T06:40:12;100575.41;;;15.70;100.00
50430;BME280;36359;41.556;-8.418;2023-05-07T06:42:39;100583.59;;;15.61;100.00
50430;BME280;36359;41.556;-8.418;2023-05-07T06:45:22;100590.13;;;15.69;100.00
50430;BME280;36359;41.556;-8.418;2023-05-07T06:47:48;100593.34;;;15.72;100.00
50430;BME280;36359;41.556;-8.418;2023-05-07T06:50:13;100584.44;;;15.78;100.00
50430;BME280;36359;41.556;-8.418;2023-05-07T06:52:43;100595.84;;;15.90;100.00
50430;BME280;36359;41.556;-8.418;2023-05-07T06:55:09;100598.41;;;15.92;100.00
50430;BME280;36359;41.556;-8.418;2023-05-07T06:57:36;100596.50;;;16.00;100.00
50430;BME280;36359;41.556;-8.418;2023-05-07T07:00:03;100598.94;;;15.87;100.00
50430;BME280;36359;41.556;-8.418;2023-05-07T07:02:36;100594.56;;;15.70;100.00
50430;BME280;36359;41.556;-8.418;2023-05-07T07:05:02;100588.44;;;15.43;100.00
50430;BME280;36359;41.556;-8.418;2023-05-07T07:07:27;100605.22;;;15.40;100.00
50430;BME280;36359;41.556;-8.418;2023-05-07T07:09:53;100600.38;;;15.58;100.00
50430;BME280;36359;41.556;-8.418;2023-05-07T07:12:19;100611.63;;;15.63;100.00
50430;BME280;36359;41.556;-8.418;2023-05-07T07:14:44;100619.78;;;15.24;100.00
50430;BME280;36359;41.556;-8.418;2023-05-07T07:17:11;100618.88;;;15.40;100.00
50430;BME280;36359;41.556;-8.418;2023-05-07T07:19:37;100620.63;;;15.08;100.00
50430;BME280;36359;41.556;-8.418;2023-05-07T07:22:04;100612.91;;;15.44;100.00
50430;BME280;36359;41.556;-8.418;2023-05-07T07:24:31;100619.34;;;15.60;100.00
50430;BME280;36359;41.556;-8.418;2023-05-07T07:27:00;100615.44;;;15.71;100.00
50430;BME280;36359;41.556;-8.418;2023-05-07T07:29:26;100627.34;;;15.78;100.00
50430;BME280;36359;41.556;-8.418;2023-05-07T07:31:52;100638.56;;;15.91;100.00
50430;BME280;36359;41.556;-8.418;2023-05-07T07:34:19;100638.81;;;16.21;100.00
50430;BME280;36359;41.556;-8.418;2023-05-07T07:36:45;100641.75;;;16.42;100.00
50430;BME280;36359;41.556;-8.418;2023-05-07T07:39:12;100648.84;;;16.60;100.00
50430;BME280;36359;41.556;-8.418;2023-05-07T07:41:38;100656.38;;;16.57;100.00
50430;BME280;36359;41.556;-8.418;2023-05-07T07:44:04;100655.53;;;16.57;100.00
50430;BME280;36359;41.556;-8.418;2023-05-07T07:46:35;100658.22;;;16.65;100.00
50430;BME280;36359;41.556;-8.418;2023-05-07T07:49:00;100660.03;;;16.73;100.00
50430;BME280;36359;41.556;-8.418;2023-05-07T07:51:26;100652.56;;;16.67;100.00
50430;BME280;36359;41.556;-8.418;2023-05-07T07:53:53;100655.94;;;16.77;99.15
50430;BME280;36359;41.556;-8.418;2023-05-07T07:56:18;100651.53;;;16.68;99.96
50430;BME280;36359;41.556;-8.418;2023-05-07T07:58:44;100651.53;;;16.68;99.85
50430;BME280;36359;41.556;-8.418;2023-05-07T08:01:10;100648.13;;;16.66;100.00
50430;BME280;36359;41.556;-8.418;2023-05-07T08:03:37;100658.44;;;16.87;99.66
50430;BME280;36359;41.556;-8.418;2023-05-07T08:06:04;100662.88;;;16.88;98.77
50430;BME280;36359;41.556;-8.418;2023-05-07T08:08:31;100658.50;;;17.39;97.00
50430;BME280;36359;41.556;-8.418;2023-05-07T08:10:57;100651.16;;;17.69;94.75
50430;BME280;36359;41.556;-8.418;2023-05-07T08:13:27;100650.38;;;17.76;93.59
50430;BME280;36359;41.556;-8.418;2023-05-07T08:15:53;100659.66;;;17.75;92.91
50430;BME280;36359;41.556;-8.418;2023-05-07T08:18:19;100655.06;;;18.05;92.85
50430;BME280;36359;41.556;-8.418;2023-05-07T08:20:45;100662.91;;;18.08;94.07
50430;BME280;36359;41.556;-8.418;2023-05-07T08:23:15;100673.69;;;18.24;92.47
50430;BME280;36359;41.556;-8.418;2023-05-07T08:25:42;100673.78;;;18.16;94.08
50430;BME280;36359;41.556;-8.418;2023-05-07T08:28:08;100669.44;;;17.77;95.43
50430;BME280;36359;41.556;-8.418;2023-05-07T08:30:34;100672.84;;;17.94;94.07
50430;BME280;36359;41.556;-8.418;2023-05-07T08:33:00;100671.63;;;17.97;91.85
50430;BME280;36359;41.556;-8.418;2023-05-07T08:35:26;100677.59;;;18.15;90.78
50430;BME280;36359;41.556;-8.418;2023-05-07T08:37:54;100668.84;;;18.26;90.11
50430;BME280;36359;41.556;-8.418;2023-05-07T08:40:24;100674.66;;;18.53;88.70
50430;BME280;36359;41.556;-8.418;2023-05-07T08:42:52;100683.31;;;18.86;87.17
50430;BME280;36359;41.556;-8.418;2023-05-07T08:45:20;100679.63;;;18.79;88.21
50430;BME280;36359;41.556;-8.418;2023-05-07T08:47:55;100686.19;;;18.63;89.24
50430;BME280;36359;41.556;-8.418;2023-05-07T08:50:25;100694.03;;;18.45;90.23
50430;BME280;36359;41.556;-8.418;2023-05-07T08:52:52;100687.44;;;18.24;88.81
50430;BME280;36359;41.556;-8.418;2023-05-07T08:55:20;100688.00;;;18.56;87.60
50430;BME280;36359;41.556;-8.418;2023-05-07T08:57:46;100700.63;;;18.65;86.44
50430;BME280;36359;41.556;-8.418;2023-05-07T09:00:15;100699.69;;;18.43;85.76
50430;BME280;36359;41.556;-8.418;2023-05-07T09:02:42;100692.63;;;18.34;87.47
50430;BME280;36359;41.556;-8.418;2023-05-07T09:05:09;100705.63;;;17.96;89.54
50430;BME280;36359;41.556;-8.418;2023-05-07T09:07:35;100712.50;;;18.36;86.25
50430;BME280;36359;41.556;-8.418;2023-05-07T09:10:04;100718.66;;;18.23;88.50
50430;BME280;36359;41.556;-8.418;2023-05-07T09:12:32;100725.19;;;17.78;86.39
50430;BME280;36359;41.556;-8.418;2023-05-07T09:14:59;100726.34;;;18.13;86.03
50430;BME280;36359;41.556;-8.418;2023-05-07T09:17:25;100724.28;;;18.15;87.62
50430;BME280;36359;41.556;-8.418;2023-05-07T09:19:52;100721.97;;;18.33;90.06
50430;BME280;36359;41.556;-8.418;2023-05-07T09:22:19;100730.19;;;18.63;86.89
50430;BME280;36359;41.556;-8.418;2023-05-07T09:24:59;100733.22;;;18.68;87.25
50430;BME280;36359;41.556;-8.418;2023-05-07T09:27:26;100734.06;;;18.69;87.15
50430;BME280;36359;41.556;-8.418;2023-05-07T09:29:54;100736.22;;;18.73;86.34
50430;BME280;36359;41.556;-8.418;2023-05-07T09:32:20;100731.47;;;19.18;83.93
50430;BME280;36359;41.556;-8.418;2023-05-07T09:34:45;100729.81;;;19.24;84.25
50430;BME280;36359;41.556;-8.418;2023-05-07T09:37:15;100731.56;;;19.53;82.98
50430;BME280;36359;41.556;-8.418;2023-05-07T09:39:50;100733.28;;;19.82;81.43
50430;BME280;36359;41.556;-8.418;2023-05-07T09:42:27;100732.28;;;19.90;80.29
50430;BME280;36359;41.556;-8.418;2023-05-07T09:44:55;100736.19;;;19.52;82.07
50430;BME280;36359;41.556;-8.418;2023-05-07T09:47:27;100741.13;;;19.85;80.11
50430;BME280;36359;41.556;-8.418;2023-05-07T09:49:59;100740.00;;;20.01;79.24
50430;BME280;36359;41.556;-8.418;2023-05-07T09:52:29;100732.00;;;20.06;80.95
50430;BME280;36359;41.556;-8.418;2023-05-07T09:55:02;100735.56;;;19.72;82.23
50430;BME280;36359;41.556;-8.418;2023-05-07T09:57:30;100734.38;;;19.88;82.36
50430;BME280;36359;41.556;-8.418;2023-05-07T10:00:01;100740.47;;;20.11;81.00
50430;BME280;36359;41.556;-8.418;2023-05-07T10:02:36;100734.69;;;20.34;79.08
50430;BME280;36359;41.556;-8.418;2023-05-07T10:05:03;100743.72;;;20.22;80.51
50430;BME280;36359;41.556;-8.418;2023-05-07T10:07:32;100747.91;;;20.17;79.99
50430;BME280;36359;41.556;-8.418;2023-05-07T10:10:04;100745.72;;;20.41;77.23
50430;BME280;36359;41.556;-8.418;2023-05-07T10:12:36;100743.72;;;20.56;77.31
50430;BME280;36359;41.556;-8.418;2023-05-07T10:15:07;100747.34;;;20.63;79.53
50430;BME280;36359;41.556;-8.418;2023-05-07T10:17:37;100737.69;;;20.46;79.31
50430;BME280;36359;41.556;-8.418;2023-05-07T10:20:05;100748.66;;;19.98;80.33
50430;BME280;36359;41.556;-8.418;2023-05-07T10:22:38;100735.22;;;20.16;80.13
50430;BME280;36359;41.556;-8.418;2023-05-07T10:25:12;100747.75;;;20.26;80.35
50430;BME280;36359;41.556;-8.418;2023-05-07T10:27:41;100747.22;;;20.09;82.03
50430;BME280;36359;41.556;-8.418;2023-05-07T10:30:33;100745.97;;;20.11;82.47
50430;BME280;36359;41.556;-8.418;2023-05-07T10:33:05;100751.66;;;20.38;79.76
50430;BME280;36359;41.556;-8.418;2023-05-07T10:35:40;100750.94;;;20.57;78.24
50430;BME280;36359;41.556;-8.418;2023-05-07T10:38:08;100744.19;;;20.73;79.66
50430;BME280;36359;41.556;-8.418;2023-05-07T10:40:36;100747.50;;;21.03;78.52
50430;BME280;36359;41.556;-8.418;2023-05-07T10:43:04;100745.59;;;21.10;76.65
50430;BME280;36359;41.556;-8.418;2023-05-07T10:45:36;100744.34;;;21.20;74.75
50430;BME280;36359;41.556;-8.418;2023-05-07T10:50:37;100745.63;;;21.24;78.08
50430;BME280;36359;41.556;-8.418;2023-05-07T10:55:46;100739.72;;;21.40;74.91
50430;BME280;36359;41.556;-8.418;2023-05-07T10:58:23;100739.09;;;21.45;74.45
50430;BME280;36359;41.556;-8.418;2023-05-07T11:01:00;100738.06;;;21.59;73.72
50430;BME280;36359;41.556;-8.418;2023-05-07T11:03:35;100736.31;;;21.65;71.72
50430;BME280;36359;41.556;-8.418;2023-05-07T11:06:13;100739.31;;;21.57;71.73
50430;BME280;36359;41.556;-8.418;2023-05-07T11:08:59;100733.78;;;21.37;69.60
50430;BME280;36359;41.556;-8.418;2023-05-07T11:11:54;100726.53;;;21.36;70.13
50430;BME280;36359;41.556;-8.418;2023-05-07T11:17:10;100727.63;;;21.54;68.95
50430;BME280;36359;41.556;-8.418;2023-05-07T11:19:54;100722.31;;;21.80;68.41
50430;BME280;36359;41.556;-8.418;2023-05-07T11:22:36;100727.59;;;22.01;66.67
50430;BME280;36359;41.556;-8.418;2023-05-07T11:25:22;100719.06;;;22.16;66.99
50430;BME280;36359;41.556;-8.418;2023-05-07T11:28:11;100719.34;;;21.48;66.17
50430;BME280;36359;41.556;-8.418;2023-05-07T11:30:46;100715.53;;;21.49;68.15
50430;BME280;36359;41.556;-8.418;2023-05-07T11:33:17;100703.63;;;21.75;67.97
50430;BME280;36359;41.556;-8.418;2023-05-07T11:35:45;100711.88;;;21.95;65.94
50430;BME280;36359;41.556;-8.418;2023-05-07T11:38:14;100696.84;;;21.71;66.86
50430;BME280;36359;41.556;-8.418;2023-05-07T11:43:16;100700.22;;;21.46;66.94
50430;BME280;36359;41.556;-8.418;2023-05-07T11:45:42;100703.56;;;22.02;65.03
50430;BME280;36359;41.556;-8.418;2023-05-07T11:48:09;100697.97;;;22.35;64.45
50430;BME280;36359;41.556;-8.418;2023-05-07T11:50:35;100708.59;;;22.44;65.03
50430;BME280;36359;41.556;-8.418;2023-05-07T11:53:07;100698.09;;;22.60;63.30
50430;BME280;36359;41.556;-8.418;2023-05-07T11:55:33;100692.03;;;22.76;62.92
50430;BME280;36359;41.556;-8.418;2023-05-07T11:57:59;100693.91;;;22.82;64.37
50430;BME280;36359;41.556;-8.418;2023-05-07T12:00:25;100682.13;;;22.62;64.24
50430;BME280;36359;41.556;-8.418;2023-05-07T12:02:50;100680.06;;;22.44;61.52
50430;BME280;36359;41.556;-8.418;2023-05-07T12:05:16;100674.97;;;22.48;61.90
50430;BME280;36359;41.556;-8.418;2023-05-07T12:07:42;100676.44;;;22.50;61.92
50430;BME280;36359;41.556;-8.418;2023-05-07T12:10:11;100677.41;;;22.69;58.87
50430;BME280;36359;41.556;-8.418;2023-05-07T12:12:46;100672.59;;;22.89;60.30
50430;BME280;36359;41.556;-8.418;2023-05-07T12:15:15;100667.88;;;22.97;58.44
50430;BME280;36359;41.556;-8.418;2023-05-07T12:17:41;100666.63;;;22.93;61.83
50430;BME280;36359;41.556;-8.418;2023-05-07T12:20:07;100664.66;;;23.06;62.80
50430;BME280;36359;41.556;-8.418;2023-05-07T12:22:34;100665.75;;;22.99;60.64
50430;BME280;36359;41.556;-8.418;2023-05-07T12:24:59;100664.66;;;23.06;60.11
50430;BME280;36359;41.556;-8.418;2023-05-07T12:27:26;100664.59;;;23.13;59.83
50430;BME280;36359;41.556;-8.418;2023-05-07T12:29:51;100656.66;;;22.85;59.41
50430;BME280;36359;41.556;-8.418;2023-05-07T12:32:19;100647.69;;;22.89;59.05
50430;BME280;36359;41.556;-8.418;2023-05-07T12:34:46;100645.94;;;23.02;61.16
50430;BME280;36359;41.556;-8.418;2023-05-07T12:37:12;100653.00;;;22.91;58.87
50430;BME280;36359;41.556;-8.418;2023-05-07T12:39:42;100655.47;;;23.06;57.67
50430;BME280;36359;41.556;-8.418;2023-05-07T12:42:15;100653.03;;;23.48;57.39
50430;BME280;36359;41.556;-8.418;2023-05-07T12:44:41;100650.34;;;23.60;57.43
50430;BME280;36359;41.556;-8.418;2023-05-07T12:47:07;100646.28;;;23.62;58.12
50430;BME280;36359;41.556;-8.418;2023-05-07T12:49:34;100652.63;;;23.88;58.32
50430;BME280;36359;41.556;-8.418;2023-05-07T12:52:03;100653.97;;;23.60;58.08
50430;BME280;36359;41.556;-8.418;2023-05-07T12:54:30;100654.59;;;23.62;56.66